EBOS/OST METAR and TAF weather

Enter ICAO airport designator
Station Type Date Time Source
EBOS METAR 2020/06/06 14:50 UTC NOAA

EBOS 061450Z 23022G32KT 9999 FEW036TCU BKN046 12/05 Q1001 TEMPO 4000 RA


Station Type Date Time Source
EBOS Decoded METAR 2020/06/06 14:50 UTC NOAA

Oostende Airport , Belgium (EBOS) 51-12N 002-52E 5M
Jun 06, 2020 - 10:50 AM EDT / 2020.06.06 1450 UTC
Wind: from the SW (230 degrees) at 25 MPH (22 KT) gusting to 37 MPH (32 KT):0
Visibility: greater than 7 mile(s):0
Sky conditions: mostly cloudy
Weather: Towering cumulus clouds observed
Temperature: 53 F (12 C)
Dew Point: 41 F (5 C)
Relative Humidity: 62%
Pressure (altimeter): 29.56 in. Hg (1001 hPa)
ob: EBOS 061450Z 23022G32KT 9999 FEW036TCU BKN046 12/05 Q1001 TEMPO 4000 RA
cycle: 15

Station Type Date Time Source
EBOS TAF 2020/06/06 12:27 UTC NOAA

TAF EBOS 061110Z 0612/0718 24023G33KT 9999 SCT040
TEMPO 0615/0621 4000 RA SHRA BKN014CB PROB30
TEMPO 0621/0624 4000 SHRA BKN014CB
BECMG 0622/0624 28014KT

Example: see airport list